Airfield :
LOGIN :

Register | Disclaimer

   EN    FR    IT 

 










Legend :    VFR   Marginal VFR   IFR   Intensive IFR   Very Intensive IFR
Visi :
Ceiling :
>= 8 km
>= 3000ft
5 to 8 km
1000 to 3000 ft
1500m to 5 km
500 to 1000 ft
800 to 1500m
200 to 500 ft
< 800m
< 200 ft
Symbols :   Thunderstorms  Fog  Heavy snow  Heavy precipitations  Wind > 20 kt
SIGMETs :     Misc.  Thunderstorms  Icing  Turbulence  Mountain Waves  Volcanic Ashes







- Airport Elevation : 17 ft
- IATA code : GRQ


EHGG - Groningen Eelde

CURRENT METAR :
  • 240725Z AUTO 18008KT 140V220 4000 BR SCT004 OVC005 13/13 Q1018 NOSIG

EXPIRED METARs :
  • 240655Z AUTO 18007KT 150V210 4600 -DZ SCT003 BKN005 BKN006 13/13 Q1018 TEMPO BKN002
  • 240625Z AUTO 19008KT 160V220 3600 DZ SCT003 BKN005 OVC006 13/12 Q1018 TEMPO BKN002
  • 240555Z AUTO 18007KT 160V220 2500 BR SCT003 BKN004 OVC005 12/12 Q1018 TEMPO BKN002
  • 240525Z AUTO 18007KT 150V210 2900 BR BKN003 OVC005 12/12 Q1018 TEMPO BKN002
  • 240455Z AUTO 18007KT 150V210 2600 -RADZ SCT003 OVC004 12/12 Q1018 TEMPO BKN002

TAF TAF EHGG
Valid from the 24 at 06:00 until the 25 at 12:00 UTC


240459Z 2406/2512 18008KT 4000 BR -DZ BKN006
TEMPO 2406/2418 2000 DZ BKN004
PROB30
TEMPO 2406/2410 BKN002
BECMG 2408/2411 21012KT
BECMG 2416/2419 24012KT 9999 NSW BKN012
TEMPO 2418/2507 4000 BR DZRA BKN006
BECMG 2504/2507 24014G24KT BKN015
TEMPO 2507/2512 7000 -RADZ BKN012
No reported NOTAMs for that airfield.
1 SIGMET reported for the Amsterdam FIR (EHAA) :
 
Severe turbulence
EHAA SIGMET 1 VALID 240500/240800 EHDB
EHAA AMSTERDAM FIR SEV TURB OBS AT 0500Z NE OF LINE N5312 E00323 - N5203 E00640 FL380/390 MOV E 30KT NC=



MET'MAP, your aeronautical weather chart ! - Copyright ORBIFLY December 2007 - Disclaimer

ORBIFLY MET'MAP TEAM :

Programming & Development : Alexandra Zaïnal
Concept & Development : Baudouin d'Aumeries
Co-Development & Prog : Marc-Olivier Méhu
Technical & hardware support : Manuel Goepfert

Contact : metmap@orbifly.com




SOURCES & CREDITS :

   NOAA